createdAt,value
2022-10-28T00:01:06.101Z,6.07
2022-10-28T00:03:33.816Z,6.20
2022-10-28T00:06:09.855Z,6.38
2022-10-28T00:08:39.394Z,5.60
2022-10-28T00:11:11.321Z,6.28
2022-10-28T00:13:41.530Z,5.97
2022-10-28T00:16:11.296Z,5.50
2022-10-28T00:18:38.655Z,5.60
2022-10-28T00:21:13.830Z,5.78
2022-10-28T00:23:41.039Z,5.80
2022-10-28T00:26:12.932Z,5.25
2022-10-28T00:28:48.028Z,5.40
2022-10-28T00:31:18.031Z,4.95
2022-10-28T00:33:45.615Z,5.13
2022-10-28T00:36:14.840Z,5.28
2022-10-28T00:38:42.896Z,5.43
2022-10-28T00:41:11.878Z,5.32
2022-10-28T00:43:43.891Z,5.20
2022-10-28T00:46:19.481Z,5.00
2022-10-28T00:48:50.440Z,5.50
2022-10-28T00:51:21.516Z,5.38
2022-10-28T00:53:51.186Z,5.40
2022-10-28T00:56:19.392Z,5.07
2022-10-28T00:58:48.942Z,5.57
2022-10-28T01:01:18.865Z,5.25
2022-10-28T01:03:45.914Z,5.65
2022-10-28T01:06:12.853Z,5.57
2022-10-28T01:08:40.169Z,5.90
2022-10-28T01:11:14.984Z,5.18
2022-10-28T01:13:55.333Z,5.40
2022-10-28T01:17:03.446Z,4.70
2022-10-28T01:19:36.022Z,4.80
2022-10-28T01:22:24.293Z,4.70
2022-10-28T01:25:32.905Z,4.90
2022-10-28T01:28:37.070Z,6.53
2022-10-28T01:31:13.195Z,5.20
2022-10-28T01:34:07.051Z,4.97
2022-10-28T01:36:52.423Z,4.63
2022-10-28T01:39:24.432Z,4.72
2022-10-28T01:42:28.652Z,5.57
2022-10-28T01:45:14.654Z,5.32
2022-10-28T01:47:58.741Z,5.20
2022-10-28T01:50:32.663Z,5.20
2022-10-28T01:53:03.843Z,5.20
2022-10-28T01:55:37.500Z,5.00
2022-10-28T02:00:35.783Z,4.80
2022-10-28T02:03:03.022Z,5.00
2022-10-28T02:05:46.581Z,5.07
2022-10-28T02:08:19.374Z,5.32
2022-10-28T02:11:03.191Z,5.17
2022-10-28T02:14:17.442Z,5.10
2022-10-28T02:16:58.980Z,4.82
2022-10-28T02:19:25.701Z,5.32
2022-10-28T02:22:15.620Z,5.35
2022-10-28T02:24:56.068Z,5.15
2022-10-28T02:27:46.958Z,5.10
2022-10-28T02:30:25.772Z,4.97
2022-10-28T02:32:57.484Z,4.60
2022-10-28T02:35:41.267Z,4.35
2022-10-28T02:40:39.897Z,4.63
2022-10-28T02:43:10.927Z,5.05
2022-10-28T02:45:50.579Z,5.07
2022-10-28T02:48:38.664Z,5.13
2022-10-28T02:51:16.721Z,5.00
2022-10-28T02:54:08.463Z,4.97
2022-10-28T02:56:40.927Z,4.97
2022-10-28T02:59:12.490Z,5.22
2022-10-28T03:01:40.261Z,5.10
2022-10-28T03:04:07.079Z,5.10
2022-10-28T03:06:33.704Z,4.80
2022-10-28T03:09:00.559Z,5.13
2022-10-28T03:11:27.251Z,5.10
2022-10-28T03:13:53.983Z,5.22
2022-10-28T03:16:21.008Z,4.75
2022-10-28T03:18:47.617Z,5.32
2022-10-28T03:21:14.882Z,5.00
2022-10-28T03:23:41.717Z,5.13
2022-10-28T03:26:08.537Z,5.25
2022-10-28T03:28:35.775Z,4.60
2022-10-28T03:31:02.588Z,5.00
2022-10-28T03:33:29.602Z,5.40
2022-10-28T03:35:59.649Z,4.70
2022-10-28T03:38:26.244Z,4.65
2022-10-28T03:40:53.190Z,4.97
2022-10-28T03:43:19.717Z,4.90
2022-10-28T03:45:47.751Z,5.15
2022-10-28T03:48:14.482Z,4.78
2022-10-28T03:50:41.137Z,4.60
2022-10-28T03:53:07.905Z,4.90
2022-10-28T03:55:34.576Z,4.90
2022-10-28T03:58:01.886Z,5.18
2022-10-28T04:00:29.387Z,4.78
2022-10-28T04:03:01.442Z,5.07
2022-10-28T04:05:31.147Z,4.93
2022-10-28T04:08:07.686Z,5.03
2022-10-28T04:10:38.052Z,5.30
2022-10-28T04:13:06.319Z,4.80
2022-10-28T04:15:35.153Z,4.85
2022-10-28T04:18:02.846Z,5.15
2022-10-28T04:20:32.463Z,4.70
2022-10-28T04:23:03.572Z,5.10
2022-10-28T04:25:30.638Z,4.70
2022-10-28T04:28:00.085Z,4.70
2022-10-28T04:30:27.097Z,4.32
2022-10-28T04:32:56.189Z,4.50
2022-10-28T04:35:27.966Z,4.80
2022-10-28T04:38:00.076Z,4.70
2022-10-28T04:40:30.905Z,5.30
2022-10-28T04:42:58.855Z,5.20
2022-10-28T04:45:36.645Z,4.75
2022-10-28T04:48:03.657Z,5.80
2022-10-28T04:50:30.547Z,5.40
2022-10-28T04:52:57.152Z,4.68
2022-10-28T04:55:23.905Z,5.22
2022-10-28T04:57:58.655Z,5.53
2022-10-28T05:00:32.030Z,6.30
2022-10-28T05:03:02.866Z,6.40
2022-10-28T05:05:29.677Z,6.28
2022-10-28T05:07:56.547Z,5.50
2022-10-28T05:10:23.549Z,5.38
2022-10-28T05:12:50.274Z,5.97
2022-10-28T05:15:17.058Z,5.00
2022-10-28T05:17:45.277Z,5.25
2022-10-28T05:20:13.478Z,5.03
2022-10-28T05:22:55.411Z,4.82
2022-10-28T05:25:23.289Z,5.40
2022-10-28T05:27:50.617Z,5.47
2022-10-28T05:30:22.969Z,5.05
2022-10-28T05:32:54.523Z,5.13
2022-10-28T05:35:22.713Z,4.85
2022-10-28T05:37:54.546Z,6.85
2022-10-28T05:40:21.154Z,8.48
2022-10-28T05:42:47.873Z,7.88
2022-10-28T05:45:15.253Z,6.30
2022-10-28T05:47:47.266Z,5.78
2022-10-28T05:50:16.303Z,6.55
2022-10-28T05:52:48.679Z,5.55
2022-10-28T05:55:16.416Z,6.15
2022-10-28T05:57:42.927Z,5.30
2022-10-28T06:00:10.368Z,5.10
2022-10-28T06:02:40.925Z,5.10
2022-10-28T06:05:08.331Z,5.03
2022-10-28T06:07:35.403Z,5.85
2022-10-28T06:10:03.183Z,5.78
2022-10-28T06:12:28.499Z,5.80
2022-10-28T06:14:55.766Z,5.85
2022-10-28T06:17:31.747Z,5.40
2022-10-28T06:19:58.588Z,5.18
2022-10-28T06:22:25.129Z,5.30
2022-10-28T06:24:51.712Z,5.57
2022-10-28T06:27:18.306Z,4.90
2022-10-28T06:29:44.903Z,5.70
2022-10-28T06:32:11.534Z,6.13
2022-10-28T06:34:38.191Z,6.30
2022-10-28T06:37:09.368Z,6.30
2022-10-28T06:39:38.320Z,5.93
2022-10-28T06:42:04.980Z,7.95
2022-10-28T06:44:31.717Z,6.57
2022-10-28T06:47:00.266Z,6.40
2022-10-28T06:49:28.246Z,6.90
2022-10-28T06:51:54.777Z,7.40
2022-10-28T06:54:21.417Z,7.07
2022-10-28T06:56:48.087Z,6.50
2022-10-28T06:59:14.683Z,7.43
2022-10-28T07:01:41.661Z,7.75
2022-10-28T07:04:11.664Z,6.68
2022-10-28T07:06:38.884Z,5.85
2022-10-28T07:09:06.402Z,5.75
2022-10-28T07:11:33.908Z,5.30
2022-10-28T07:14:00.776Z,5.20
2022-10-28T07:16:29.725Z,5.75
2022-10-28T07:18:56.375Z,5.57
2022-10-28T07:21:28.559Z,5.32
2022-10-28T07:23:58.769Z,5.32
2022-10-28T07:26:26.192Z,5.55
2022-10-28T07:28:53.402Z,5.88
2022-10-28T07:31:20.143Z,5.82
2022-10-28T07:33:52.643Z,5.80
2022-10-28T07:36:19.473Z,5.45
2022-10-28T07:38:49.439Z,5.20
2022-10-28T07:41:16.207Z,5.72
2022-10-28T07:43:43.055Z,5.13
2022-10-28T07:46:12.272Z,4.70
2022-10-28T07:48:39.310Z,4.90
2022-10-28T07:51:07.437Z,5.13
2022-10-28T07:53:34.876Z,4.90
2022-10-28T07:56:05.813Z,5.25
2022-10-28T07:58:32.441Z,4.93
2022-10-28T08:01:15.862Z,5.22
2022-10-28T08:03:42.772Z,5.68
2022-10-28T08:06:18.168Z,5.38
2022-10-28T08:08:46.737Z,5.15
2022-10-28T08:11:27.692Z,6.35
2022-10-28T08:13:55.229Z,6.20
2022-10-28T08:16:21.873Z,6.05
2022-10-28T08:18:48.680Z,9.02
2022-10-28T08:21:15.947Z,7.53
2022-10-28T08:23:46.526Z,5.30
2022-10-28T08:26:14.867Z,5.75
2022-10-28T08:28:42.185Z,5.90
2022-10-28T08:31:10.091Z,6.05
2022-10-28T08:33:42.340Z,5.55
2022-10-28T08:36:11.819Z,5.90
2022-10-28T08:38:42.916Z,5.60
2022-10-28T08:41:32.809Z,5.45
2022-10-28T08:43:59.328Z,4.50
2022-10-28T08:46:31.329Z,4.80
2022-10-28T08:49:00.260Z,4.20
2022-10-28T08:51:59.231Z,3.88
2022-10-28T08:54:50.481Z,4.30
2022-10-28T08:57:21.872Z,4.07
2022-10-28T08:59:52.043Z,3.60
2022-10-28T09:02:22.965Z,3.60
2022-10-28T09:05:07.234Z,3.30
2022-10-28T09:07:37.094Z,3.58
2022-10-28T09:10:05.702Z,3.30
2022-10-28T09:12:48.513Z,3.38
2022-10-28T09:15:43.348Z,3.45
2022-10-28T09:18:17.903Z,3.40
2022-10-28T09:20:53.400Z,3.50
2022-10-28T09:23:44.855Z,3.75
2022-10-28T09:26:29.056Z,3.80
2022-10-28T09:29:20.591Z,3.60
2022-10-28T09:31:52.776Z,3.28
2022-10-28T09:34:49.941Z,3.10
2022-10-28T09:37:26.947Z,3.20
2022-10-28T09:39:57.450Z,2.80
2022-10-28T09:42:29.928Z,2.95
2022-10-28T09:45:04.679Z,3.30
2022-10-28T09:47:37.214Z,2.75
2022-10-28T09:50:08.359Z,2.95
2022-10-28T09:52:43.070Z,6.35
2022-10-28T09:55:20.213Z,3.45
2022-10-28T09:57:46.773Z,3.38
2022-10-28T10:00:14.955Z,2.72
2022-10-28T10:02:42.697Z,2.65
2022-10-28T10:05:17.447Z,2.35
2022-10-28T10:07:53.448Z,2.60
2022-10-28T10:10:27.817Z,2.50
2022-10-28T10:12:59.364Z,2.60
2022-10-28T10:15:39.018Z,2.10
2022-10-28T10:18:11.281Z,2.22
2022-10-28T10:20:48.533Z,2.50
2022-10-28T10:23:29.086Z,2.60
2022-10-28T10:26:08.230Z,2.80
2022-10-28T10:28:46.962Z,2.20
2022-10-28T10:31:20.108Z,2.30
2022-10-28T10:33:51.214Z,2.40
2022-10-28T10:36:21.137Z,2.30
2022-10-28T10:38:54.152Z,2.45
2022-10-28T10:41:41.811Z,2.60
2022-10-28T11:01:42.496Z,2.10
2022-10-28T11:04:17.033Z,2.70
2022-10-28T11:06:45.081Z,2.25
2022-10-28T11:09:33.873Z,2.30
2022-10-28T11:12:00.818Z,2.10
2022-10-28T11:14:30.250Z,2.30
2022-10-28T11:17:01.971Z,2.45
2022-10-28T11:19:31.413Z,2.20
2022-10-28T11:22:15.220Z,2.20
2022-10-28T11:25:12.778Z,2.28
2022-10-28T11:28:12.773Z,2.10
2022-10-28T11:31:01.505Z,2.03
2022-10-28T11:33:51.440Z,2.00
2022-10-28T11:36:28.410Z,2.05
2022-10-28T11:39:19.348Z,2.08
2022-10-28T11:42:04.770Z,2.10
2022-10-28T11:45:08.846Z,2.10
2022-10-28T11:47:46.329Z,2.08
2022-10-28T11:50:39.117Z,2.08
2022-10-28T11:53:24.325Z,2.50
2022-10-28T11:56:10.631Z,3.28
2022-10-28T11:58:43.406Z,3.45
2022-10-28T12:01:33.471Z,2.08
2022-10-28T12:04:21.404Z,2.25
2022-10-28T12:07:12.781Z,2.17
2022-10-28T12:10:33.196Z,2.53
2022-10-28T12:13:41.429Z,2.10
2022-10-28T12:16:22.059Z,1.90
2022-10-28T12:18:59.272Z,2.33
2022-10-28T12:21:36.745Z,2.10
2022-10-28T12:24:06.667Z,1.95
2022-10-28T12:26:42.958Z,2.42
2022-10-28T12:29:25.587Z,1.83
2022-10-28T12:31:57.886Z,2.40
2022-10-28T12:34:31.923Z,2.10
2022-10-28T12:37:10.317Z,2.20
2022-10-28T12:39:48.996Z,2.10
2022-10-28T12:42:23.966Z,2.17
2022-10-28T12:44:54.050Z,2.20
2022-10-28T12:47:26.897Z,2.55
2022-10-28T12:50:04.297Z,2.15
2022-10-28T12:52:30.755Z,2.33
2022-10-28T12:57:45.719Z,1.88
2022-10-28T13:00:28.221Z,1.95
2022-10-28T13:03:07.748Z,1.90
2022-10-28T13:06:03.587Z,1.95
2022-10-28T13:11:48.033Z,2.08
2022-10-28T13:14:53.653Z,2.28
2022-10-28T13:17:28.331Z,2.40
2022-10-28T13:20:07.750Z,2.40
2022-10-28T13:23:01.443Z,2.30
2022-10-28T13:25:48.230Z,2.05
2022-10-28T13:28:18.761Z,2.20
2022-10-28T13:30:57.700Z,2.28
2022-10-28T13:33:26.825Z,2.53
2022-10-28T13:36:10.336Z,2.00
2022-10-28T13:38:38.521Z,2.20
2022-10-28T13:41:10.873Z,2.10
2022-10-28T13:43:50.054Z,2.40
2022-10-28T13:46:58.747Z,2.40
2022-10-28T13:49:28.947Z,2.63
2022-10-28T13:52:19.444Z,2.72
2022-10-28T13:54:53.211Z,2.42
2022-10-28T13:57:28.775Z,2.35
2022-10-28T14:00:06.134Z,2.25
2022-10-28T14:02:42.173Z,2.63
2022-10-28T14:05:11.449Z,2.72
2022-10-28T14:07:53.514Z,2.65
2022-10-28T14:10:24.976Z,2.58
2022-10-28T14:12:59.257Z,2.40
2022-10-28T14:15:28.264Z,2.78
2022-10-28T14:18:09.925Z,2.80
2022-10-28T14:20:46.459Z,2.70
2022-10-28T14:23:22.102Z,2.90
2022-10-28T14:25:51.715Z,2.85
2022-10-28T14:28:27.413Z,2.67
2022-10-28T14:31:10.385Z,2.75
2022-10-28T14:33:43.094Z,3.10
2022-10-28T14:36:18.943Z,2.38
2022-10-28T14:38:58.345Z,2.67
2022-10-28T14:41:34.409Z,2.60
2022-10-28T14:44:25.972Z,2.92
2022-10-28T14:46:58.707Z,2.63
2022-10-28T14:49:34.405Z,2.67
2022-10-28T14:52:18.919Z,2.22
2022-10-28T14:54:52.274Z,2.70
2022-10-28T14:59:51.018Z,2.85
2022-10-28T15:02:22.009Z,2.95
2022-10-28T15:05:00.464Z,2.80
2022-10-28T15:07:27.096Z,3.00
2022-10-28T15:09:55.485Z,2.63
2022-10-28T15:12:26.228Z,2.60
2022-10-28T15:14:56.252Z,2.83
2022-10-28T15:17:39.299Z,2.80
2022-10-28T15:20:26.879Z,2.97
2022-10-28T15:22:54.902Z,4.43
2022-10-28T15:25:23.088Z,4.80
2022-10-28T15:27:53.486Z,3.90
2022-10-28T15:30:23.787Z,3.22
2022-10-28T15:32:52.978Z,3.10
2022-10-28T15:35:29.878Z,4.22
2022-10-28T15:38:00.302Z,5.72
2022-10-28T15:40:32.667Z,4.40
2022-10-28T15:43:01.883Z,4.53
2022-10-28T15:45:31.390Z,3.38
2022-10-28T15:47:59.614Z,3.88
2022-10-28T15:50:28.632Z,3.25
2022-10-28T15:53:23.173Z,3.08
2022-10-28T15:56:09.473Z,3.45
2022-10-28T15:58:40.120Z,3.70
2022-10-28T16:01:28.279Z,4.10
2022-10-28T16:03:54.975Z,3.60
2022-10-28T16:06:27.466Z,3.45
2022-10-28T16:09:12.979Z,3.90
2022-10-28T16:11:43.497Z,3.85
2022-10-28T16:14:31.288Z,4.13
2022-10-28T16:17:18.138Z,4.05
2022-10-28T16:19:51.482Z,4.10
2022-10-28T16:22:19.080Z,3.90
2022-10-28T16:24:45.929Z,3.85
2022-10-28T16:27:18.568Z,3.60
2022-10-28T16:29:45.459Z,3.78
2022-10-28T16:32:13.156Z,3.40
2022-10-28T16:34:40.362Z,3.50
2022-10-28T16:37:32.007Z,3.45
2022-10-28T16:39:58.577Z,3.70
2022-10-28T16:42:25.765Z,3.38
2022-10-28T16:44:52.632Z,3.08
2022-10-28T16:47:21.796Z,3.70
2022-10-28T16:49:52.570Z,3.95
2022-10-28T16:52:30.043Z,3.42
2022-10-28T16:54:57.077Z,3.55
2022-10-28T16:59:56.158Z,3.47
2022-10-28T17:02:28.375Z,5.10
2022-10-28T17:04:55.585Z,4.07
2022-10-28T17:07:22.151Z,3.85
2022-10-28T17:09:48.798Z,3.60
2022-10-28T17:12:17.979Z,4.10
2022-10-28T17:14:44.859Z,3.97
2022-10-28T17:17:12.183Z,4.68
2022-10-28T17:19:39.775Z,5.18
2022-10-28T17:22:09.236Z,5.30
2022-10-28T17:24:36.628Z,4.80
2022-10-28T17:27:03.818Z,4.60
2022-10-28T17:29:30.348Z,4.78
2022-10-28T17:31:56.833Z,4.78
2022-10-28T17:34:23.339Z,7.70
2022-10-28T17:36:49.856Z,6.20
2022-10-28T17:39:19.648Z,6.07
2022-10-28T17:41:48.496Z,6.28
2022-10-28T17:44:15.046Z,6.63
2022-10-28T17:46:41.569Z,17.42
2022-10-28T17:49:08.809Z,15.40
2022-10-28T17:51:36.067Z,15.95
2022-10-28T17:54:04.759Z,16.60
2022-10-28T17:56:32.476Z,17.52
2022-10-28T17:59:01.805Z,17.60
2022-10-28T18:01:32.971Z,19.10
2022-10-28T18:04:00.117Z,12.45
2022-10-28T18:06:26.979Z,11.25
2022-10-28T18:08:53.701Z,11.90
2022-10-28T18:11:20.871Z,11.10
2022-10-28T18:13:49.917Z,10.43
2022-10-28T18:16:22.304Z,7.90
2022-10-28T18:18:48.924Z,7.03
2022-10-28T18:21:15.488Z,7.60
2022-10-28T18:23:42.345Z,8.27
2022-10-28T18:26:16.074Z,6.75
2022-10-28T18:28:45.935Z,7.65
2022-10-28T18:31:14.939Z,10.05
2022-10-28T18:33:42.688Z,9.05
2022-10-28T18:36:18.100Z,7.93
2022-10-28T18:38:44.749Z,7.70
2022-10-28T18:41:19.532Z,7.85
2022-10-28T18:43:46.509Z,7.57
2022-10-28T18:46:14.342Z,7.40
2022-10-28T18:48:41.398Z,6.25
2022-10-28T18:51:11.457Z,6.25
2022-10-28T18:53:40.290Z,6.10
2022-10-28T18:56:09.831Z,6.00
2022-10-28T18:58:36.604Z,6.45
2022-10-28T19:01:12.477Z,6.40
2022-10-28T19:03:39.787Z,5.97
2022-10-28T19:06:09.245Z,5.63
2022-10-28T19:08:35.778Z,5.90
2022-10-28T19:11:03.503Z,6.82
2022-10-28T19:13:34.201Z,6.63
2022-10-28T19:16:00.847Z,6.32
2022-10-28T19:18:27.543Z,7.15
2022-10-28T19:20:57.375Z,21.15
2022-10-28T19:23:23.958Z,16.10
2022-10-28T19:25:55.716Z,13.70
2022-10-28T19:28:22.704Z,36.15
2022-10-28T19:30:49.324Z,39.53
2022-10-28T19:33:15.984Z,25.10
2022-10-28T19:35:42.513Z,36.75
2022-10-28T19:38:09.050Z,27.83
2022-10-28T19:40:35.548Z,16.48
2022-10-28T19:43:02.064Z,11.75
2022-10-28T19:45:28.599Z,11.57
2022-10-28T19:47:55.392Z,10.65
2022-10-28T19:50:22.140Z,9.50
2022-10-28T19:52:48.657Z,10.45
2022-10-28T19:55:15.309Z,10.55
2022-10-28T19:57:41.819Z,10.88
2022-10-28T20:00:09.821Z,10.77
2022-10-28T20:02:39.024Z,10.88
2022-10-28T20:05:06.039Z,9.52
2022-10-28T20:07:32.518Z,8.82
2022-10-28T20:12:30.572Z,9.75
2022-10-28T20:14:57.105Z,8.60
2022-10-28T20:17:23.619Z,8.43
2022-10-28T20:19:50.168Z,7.82
2022-10-28T20:22:17.262Z,8.95
2022-10-28T20:24:46.210Z,8.65
2022-10-28T20:27:12.788Z,9.25
2022-10-28T20:29:39.343Z,9.82
2022-10-28T20:32:05.958Z,9.07
2022-10-28T20:34:32.497Z,8.90
2022-10-28T20:36:59.037Z,9.45
2022-10-28T20:39:26.145Z,7.68
2022-10-28T20:41:52.821Z,8.68
2022-10-28T20:44:19.940Z,8.98
2022-10-28T20:46:49.917Z,10.20
2022-10-28T20:49:16.703Z,8.02
2022-10-28T20:51:43.331Z,7.55
2022-10-28T20:54:09.890Z,8.57
2022-10-28T20:56:38.358Z,8.95
2022-10-28T20:59:05.075Z,9.43
2022-10-28T21:01:37.150Z,10.25
2022-10-28T21:04:06.971Z,10.68
2022-10-28T21:06:34.011Z,8.75
2022-10-28T21:09:00.509Z,9.32
2022-10-28T21:11:28.642Z,8.85
2022-10-28T21:13:58.272Z,8.77
2022-10-28T21:16:26.488Z,8.43
2022-10-28T21:18:53.967Z,7.75
2022-10-28T21:21:21.481Z,8.02
2022-10-28T21:23:48.081Z,7.70
2022-10-28T21:26:15.175Z,8.27
2022-10-28T21:28:41.880Z,8.55
2022-10-28T21:31:14.096Z,8.48
2022-10-28T21:33:42.367Z,8.48
2022-10-28T21:36:17.047Z,8.75
2022-10-28T21:38:44.342Z,8.38
2022-10-28T21:41:19.377Z,8.35
2022-10-28T21:43:48.022Z,8.52
2022-10-28T21:46:17.197Z,8.70
2022-10-28T21:48:44.007Z,10.48
2022-10-28T21:51:14.804Z,9.05
2022-10-28T21:53:43.061Z,9.27
2022-10-28T21:56:16.536Z,9.18
2022-10-28T21:58:43.800Z,8.73
2022-10-28T22:01:16.640Z,8.20
2022-10-28T22:03:43.399Z,8.88
2022-10-28T22:06:10.664Z,9.18
2022-10-28T22:08:40.652Z,9.07
2022-10-28T22:11:12.248Z,9.48
2022-10-28T22:13:38.804Z,8.93
2022-10-28T22:16:08.005Z,9.07
2022-10-28T22:18:36.533Z,8.95
2022-10-28T22:21:05.555Z,9.02
2022-10-28T22:23:33.443Z,8.15
2022-10-28T22:26:05.458Z,9.05
2022-10-28T22:28:32.160Z,8.55
2022-10-28T22:31:04.260Z,8.85
2022-10-28T22:33:30.858Z,8.52
2022-10-28T22:35:58.879Z,8.38
2022-10-28T22:38:25.730Z,8.63
2022-10-28T22:41:12.648Z,8.13
2022-10-28T22:43:40.251Z,7.60
2022-10-28T22:46:07.328Z,8.07
2022-10-28T22:48:34.108Z,7.82
2022-10-28T22:51:01.851Z,7.65
2022-10-28T22:53:28.569Z,8.07
2022-10-28T22:55:56.195Z,7.93
2022-10-28T22:58:24.530Z,8.13
2022-10-28T23:00:51.089Z,7.40
2022-10-28T23:03:17.642Z,7.63
2022-10-28T23:05:44.170Z,7.60
2022-10-28T23:08:17.021Z,7.60
2022-10-28T23:10:43.536Z,7.82
2022-10-28T23:13:12.239Z,7.88
2022-10-28T23:15:38.751Z,7.55
2022-10-28T23:18:05.337Z,6.90
2022-10-28T23:20:32.059Z,6.47
2022-10-28T23:22:58.609Z,7.22
2022-10-28T23:25:25.191Z,6.93
2022-10-28T23:27:51.831Z,7.13
2022-10-28T23:30:18.362Z,8.32
2022-10-28T23:32:44.893Z,7.40
2022-10-28T23:35:11.435Z,6.78
2022-10-28T23:37:37.960Z,6.70
2022-10-28T23:40:05.232Z,7.38
2022-10-28T23:42:31.847Z,7.32
2022-10-28T23:44:58.573Z,7.25
2022-10-28T23:47:25.076Z,7.07
2022-10-28T23:49:52.854Z,7.28
2022-10-28T23:52:19.606Z,7.05
2022-10-28T23:54:46.494Z,7.18
2022-10-28T23:57:13.146Z,6.80
2022-10-28T23:59:39.979Z,6.95
